createdAt,value
2018-05-12T00:00:04.191Z,15.07
2018-05-12T00:02:31.703Z,19.75
2018-05-12T00:04:59.116Z,16.65
2018-05-12T00:07:26.545Z,14.60
2018-05-12T00:09:53.952Z,19.10
2018-05-12T00:12:21.480Z,14.95
2018-05-12T00:14:48.891Z,14.45
2018-05-12T00:17:16.319Z,15.57
2018-05-12T00:19:43.728Z,14.65
2018-05-12T00:22:11.249Z,15.65
2018-05-12T00:24:38.831Z,11.95
2018-05-12T00:27:06.257Z,14.10
2018-05-12T00:29:33.676Z,15.07
2018-05-12T00:32:01.107Z,16.33
2018-05-12T00:34:29.287Z,17.50
2018-05-12T00:36:56.799Z,17.65
2018-05-12T00:39:24.217Z,17.10
2018-05-12T00:41:51.638Z,16.83
2018-05-12T00:44:19.106Z,14.63
2018-05-12T00:46:46.569Z,12.55
2018-05-12T00:49:13.995Z,13.82
2018-05-12T00:51:41.405Z,12.70
2018-05-12T00:54:08.882Z,14.40
2018-05-12T00:56:36.292Z,13.82
2018-05-12T00:59:03.724Z,14.00
2018-05-12T01:01:31.137Z,15.57
2018-05-12T01:03:58.557Z,13.40
2018-05-12T01:06:25.972Z,14.75
2018-05-12T01:08:53.393Z,15.23
2018-05-12T01:11:20.809Z,11.48
2018-05-12T01:13:48.230Z,14.32
2018-05-12T01:16:15.706Z,20.67
2018-05-12T01:18:43.124Z,16.98
2018-05-12T01:21:10.541Z,18.45
2018-05-12T01:23:37.970Z,12.98
2018-05-12T01:26:05.385Z,14.20
2018-05-12T01:28:32.814Z,16.42
2018-05-12T01:31:00.234Z,13.57
2018-05-12T01:33:27.648Z,13.15
2018-05-12T01:35:55.073Z,13.27
2018-05-12T01:38:22.492Z,13.13
2018-05-12T01:40:49.922Z,14.07
2018-05-12T01:43:17.353Z,13.18
2018-05-12T01:45:45.532Z,14.98
2018-05-12T01:48:13.737Z,15.07
2018-05-12T01:50:41.157Z,12.90
2018-05-12T01:53:08.578Z,12.88
2018-05-12T01:55:36.005Z,15.13
2018-05-12T01:58:03.420Z,16.05
2018-05-12T02:00:30.853Z,17.33
2018-05-12T02:02:58.359Z,17.05
2018-05-12T02:05:25.786Z,15.57
2018-05-12T02:07:53.193Z,15.23
2018-05-12T02:10:20.657Z,12.20
2018-05-12T02:12:48.072Z,15.00
2018-05-12T02:15:15.501Z,15.35
2018-05-12T02:17:42.971Z,15.55
2018-05-12T02:20:10.404Z,15.90
2018-05-12T02:22:37.909Z,15.85
2018-05-12T02:25:05.325Z,16.90
2018-05-12T02:27:32.751Z,18.23
2018-05-12T02:30:00.223Z,15.85
2018-05-12T02:32:27.645Z,16.27
2018-05-12T02:34:55.065Z,20.75
2018-05-12T02:37:22.489Z,17.85
2018-05-12T02:39:49.909Z,16.30
2018-05-12T02:42:17.360Z,22.62
2018-05-12T02:44:44.749Z,18.10
2018-05-12T02:47:12.178Z,16.10
2018-05-12T02:49:40.365Z,18.12
2018-05-12T02:52:08.558Z,18.58
2018-05-12T02:54:36.741Z,16.45
2018-05-12T02:57:04.934Z,17.25
2018-05-12T02:59:33.117Z,15.80
2018-05-12T03:02:01.314Z,16.70
2018-05-12T03:04:29.497Z,18.15
2018-05-12T03:06:57.688Z,28.45
2018-05-12T03:09:25.872Z,15.02
2018-05-12T03:11:54.065Z,15.70
2018-05-12T03:14:21.546Z,12.85
2018-05-12T03:16:48.929Z,14.73
2018-05-12T03:19:16.345Z,13.50
2018-05-12T03:21:43.762Z,15.52
2018-05-12T03:24:11.221Z,15.05
2018-05-12T03:26:38.643Z,18.42
2018-05-12T03:29:06.069Z,15.77
2018-05-12T03:31:33.486Z,21.02
2018-05-12T03:34:00.914Z,14.73
2018-05-12T03:36:28.325Z,16.27
2018-05-12T03:38:55.749Z,18.90
2018-05-12T03:41:23.166Z,15.32
2018-05-12T03:43:50.589Z,18.05
2018-05-12T03:46:18.039Z,15.75
2018-05-12T03:48:45.464Z,17.02
2018-05-12T03:51:12.885Z,16.27
2018-05-12T03:53:40.317Z,14.82
2018-05-12T03:56:07.740Z,17.37
2018-05-12T03:58:35.144Z,17.62
2018-05-12T04:01:02.578Z,19.17
2018-05-12T04:03:29.999Z,17.65
2018-05-12T04:06:10.006Z,19.35
2018-05-12T04:08:49.145Z,17.42
2018-05-12T04:11:28.424Z,17.17
2018-05-12T04:13:55.966Z,17.90
2018-05-12T04:16:23.389Z,20.52
2018-05-12T04:18:50.805Z,20.08
2018-05-12T04:21:18.240Z,19.12
2018-05-12T04:23:46.418Z,19.67
2018-05-12T04:26:14.610Z,17.85
2018-05-12T04:28:42.796Z,17.30
2018-05-12T04:31:10.981Z,17.00
2018-05-12T04:33:39.173Z,23.62
2018-05-12T04:36:07.361Z,19.45
2018-05-12T04:38:35.540Z,21.12
2018-05-12T04:41:02.960Z,22.08
2018-05-12T04:43:30.417Z,20.15
2018-05-12T04:45:57.845Z,16.70
2018-05-12T04:48:26.764Z,16.98
2018-05-12T04:50:54.970Z,20.23
2018-05-12T04:53:22.445Z,22.80
2018-05-12T04:55:49.864Z,21.10
2018-05-12T04:58:17.295Z,24.33
2018-05-12T05:00:44.721Z,25.70
2018-05-12T05:03:12.142Z,24.45
2018-05-12T05:05:39.566Z,22.60
2018-05-12T05:08:07.848Z,23.67
2018-05-12T05:10:35.203Z,24.20
2018-05-12T05:13:02.717Z,20.12
2018-05-12T05:15:30.190Z,25.10
2018-05-12T05:17:57.617Z,21.62
2018-05-12T05:20:25.139Z,25.75
2018-05-12T05:22:52.561Z,22.52
2018-05-12T05:25:19.976Z,24.42
2018-05-12T05:27:47.401Z,25.30
2018-05-12T05:30:14.824Z,23.25
2018-05-12T05:32:42.244Z,23.40
2018-05-12T05:35:10.488Z,23.27
2018-05-12T05:37:38.654Z,26.40
2018-05-12T05:40:06.064Z,21.42
2018-05-12T05:42:33.494Z,22.55
2018-05-12T05:45:00.958Z,22.50
2018-05-12T05:47:28.392Z,21.08
2018-05-12T05:49:55.805Z,23.30
2018-05-12T05:52:23.264Z,23.50
2018-05-12T05:54:50.685Z,19.37
2018-05-12T05:57:18.100Z,20.75
2018-05-12T05:59:45.525Z,17.35
2018-05-12T06:02:12.949Z,18.87
2018-05-12T06:04:40.369Z,19.10
2018-05-12T06:07:07.973Z,15.57
2018-05-12T06:09:35.305Z,18.25
2018-05-12T06:12:04.229Z,18.10
2018-05-12T06:14:32.435Z,14.55
2018-05-12T06:17:00.609Z,14.18
2018-05-12T06:19:28.792Z,15.60
2018-05-12T06:21:57.010Z,15.55
2018-05-12T06:24:24.435Z,12.10
2018-05-12T06:26:51.858Z,13.57
2018-05-12T06:29:19.273Z,11.63
2018-05-12T06:31:46.694Z,13.50
2018-05-12T06:34:14.115Z,11.45
2018-05-12T06:36:41.626Z,12.80
2018-05-12T06:39:09.049Z,12.70
2018-05-12T06:41:36.477Z,12.45
2018-05-12T06:44:03.931Z,10.75
2018-05-12T06:46:31.350Z,10.35
2018-05-12T06:48:58.789Z,11.80
2018-05-12T06:51:26.244Z,11.32
2018-05-12T06:53:53.678Z,13.85
2018-05-12T06:56:21.898Z,11.95
2018-05-12T06:58:49.369Z,15.82
2018-05-12T07:01:16.869Z,13.27
2018-05-12T07:03:44.994Z,10.20
2018-05-12T07:06:13.189Z,17.35
2018-05-12T07:08:40.682Z,11.75
2018-05-12T07:11:08.114Z,11.38
2018-05-12T07:13:36.297Z,11.60
2018-05-12T07:16:04.496Z,10.40
2018-05-12T07:18:32.692Z,12.23
2018-05-12T07:21:00.876Z,12.98
2018-05-12T07:23:29.065Z,14.40
2018-05-12T07:25:57.278Z,14.00
2018-05-12T07:28:24.709Z,14.52
2018-05-12T07:30:52.212Z,14.57
2018-05-12T07:33:19.644Z,13.20
2018-05-12T07:35:47.075Z,14.35
2018-05-12T07:38:14.490Z,17.08
2018-05-12T07:40:42.681Z,15.38
2018-05-12T07:43:10.877Z,15.82
2018-05-12T07:45:39.101Z,14.18
2018-05-12T07:48:06.496Z,16.85
2018-05-12T07:50:33.926Z,14.13
2018-05-12T07:53:01.352Z,15.77
2018-05-12T07:55:28.773Z,19.35
2018-05-12T07:57:56.242Z,17.48
2018-05-12T08:00:23.665Z,14.45
2018-05-12T08:02:51.083Z,17.02
2018-05-12T08:05:18.549Z,16.92
2018-05-12T08:07:45.966Z,15.57
2018-05-12T08:10:13.478Z,18.05
2018-05-12T08:12:40.983Z,14.52
2018-05-12T08:15:08.367Z,14.07
2018-05-12T08:17:35.894Z,16.30
2018-05-12T08:20:03.324Z,13.60
2018-05-12T08:22:30.833Z,17.73
2018-05-12T08:24:58.260Z,16.60
2018-05-12T08:27:25.676Z,13.35
2018-05-12T08:29:53.104Z,17.02
2018-05-12T08:32:20.524Z,15.65
2018-05-12T08:34:47.937Z,18.92
2018-05-12T08:37:15.361Z,16.12
2018-05-12T08:39:42.777Z,15.80
2018-05-12T08:42:10.213Z,13.68
2018-05-12T08:44:37.631Z,12.95
2018-05-12T08:47:05.836Z,19.98
2018-05-12T08:49:33.249Z,21.08
2018-05-12T08:52:00.685Z,15.93
2018-05-12T08:54:28.100Z,18.98
2018-05-12T08:56:55.533Z,15.63
2018-05-12T08:59:22.950Z,14.98
2018-05-12T09:01:50.381Z,18.27
2018-05-12T09:04:17.801Z,15.93
2018-05-12T09:06:45.993Z,17.12
2018-05-12T09:09:14.181Z,17.45
2018-05-12T09:11:42.377Z,15.50
2018-05-12T09:14:09.790Z,17.23
2018-05-12T09:16:37.226Z,21.35
2018-05-12T09:19:04.644Z,15.35
2018-05-12T09:21:32.171Z,15.38
2018-05-12T09:23:59.572Z,15.45
2018-05-12T09:26:26.996Z,16.25
2018-05-12T09:28:54.419Z,15.10
2018-05-12T09:31:21.947Z,16.83
2018-05-12T09:33:49.361Z,15.40
2018-05-12T09:36:16.786Z,15.27
2018-05-12T09:38:44.254Z,14.75
2018-05-12T09:41:12.429Z,11.60
2018-05-12T09:43:39.905Z,11.88
2018-05-12T09:46:07.334Z,13.75
2018-05-12T09:48:34.739Z,11.88
2018-05-12T09:51:02.170Z,13.75
2018-05-12T09:53:29.585Z,10.52
2018-05-12T09:55:57.053Z,12.73
2018-05-12T09:58:24.469Z,12.52
2018-05-12T10:00:51.993Z,12.27
2018-05-12T10:03:19.404Z,10.35
2018-05-12T10:05:46.828Z,11.52
2018-05-12T10:08:14.302Z,12.55
2018-05-12T10:10:41.727Z,11.05
2018-05-12T10:13:09.145Z,10.48
2018-05-12T10:15:36.624Z,13.62
2018-05-12T10:18:03.985Z,12.30
2018-05-12T10:20:31.418Z,11.80
2018-05-12T10:22:59.644Z,15.10
2018-05-12T10:25:27.065Z,13.48
2018-05-12T10:27:54.490Z,13.07
2018-05-12T10:30:21.945Z,12.07
2018-05-12T10:32:49.946Z,17.70
2018-05-12T10:35:17.365Z,13.57
2018-05-12T10:37:45.552Z,10.95
2018-05-12T10:40:13.739Z,12.63
2018-05-12T10:42:41.929Z,10.82
2018-05-12T10:45:10.104Z,9.98
2018-05-12T10:47:37.616Z,8.45
2018-05-12T10:50:05.076Z,7.95
2018-05-12T10:52:32.502Z,8.60
2018-05-12T10:54:59.921Z,8.07
2018-05-12T10:57:27.346Z,5.90
2018-05-12T10:59:54.757Z,6.43
2018-05-12T11:02:22.176Z,9.77
2018-05-12T11:04:49.601Z,8.23
2018-05-12T11:07:17.057Z,11.10
2018-05-12T11:09:44.623Z,10.68
2018-05-12T11:12:12.010Z,8.75
2018-05-12T11:14:39.430Z,8.80
2018-05-12T11:17:06.852Z,7.65
2018-05-12T11:19:34.264Z,10.18
2018-05-12T11:22:01.729Z,9.27
2018-05-12T11:24:29.161Z,8.77
2018-05-12T11:26:56.588Z,10.80
2018-05-12T11:29:24.003Z,9.35
2018-05-12T11:31:51.429Z,11.50
2018-05-12T11:34:19.637Z,9.32
2018-05-12T11:36:47.809Z,9.88
2018-05-12T11:39:15.997Z,12.50
2018-05-12T11:41:44.189Z,12.05
2018-05-12T11:44:12.402Z,12.15
2018-05-12T11:46:39.828Z,11.55
2018-05-12T11:49:07.244Z,13.38
2018-05-12T11:51:34.664Z,16.40
2018-05-12T11:54:02.113Z,16.37
2018-05-12T11:56:29.540Z,10.50
2018-05-12T11:58:56.973Z,15.35
2018-05-12T12:01:24.396Z,11.65
2018-05-12T12:03:51.904Z,11.30
2018-05-12T12:06:19.330Z,12.77
2018-05-12T12:08:46.738Z,12.45
2018-05-12T12:11:14.159Z,14.02
2018-05-12T12:13:41.578Z,10.80
2018-05-12T12:16:09.005Z,9.88
2018-05-12T12:18:36.421Z,10.80
2018-05-12T12:21:03.837Z,13.57
2018-05-12T12:23:31.260Z,13.15
2018-05-12T12:25:58.677Z,12.77
2018-05-12T12:28:26.097Z,11.00
2018-05-12T12:30:53.535Z,10.20
2018-05-12T12:33:20.999Z,10.25
2018-05-12T12:35:48.457Z,10.20
2018-05-12T12:38:15.876Z,11.52
2018-05-12T12:40:43.303Z,11.40
2018-05-12T12:43:10.725Z,13.00
2018-05-12T12:45:38.141Z,11.52
2018-05-12T12:48:05.570Z,13.88
2018-05-12T12:50:33.753Z,16.37
2018-05-12T12:53:01.178Z,8.75
2018-05-12T12:55:28.585Z,10.90
2018-05-12T12:57:56.013Z,10.02
2018-05-12T13:00:23.427Z,9.15
2018-05-12T13:02:50.853Z,10.00
2018-05-12T13:05:18.269Z,12.98
2018-05-12T13:07:46.461Z,8.85
2018-05-12T13:10:14.669Z,10.15
2018-05-12T13:12:42.094Z,11.77
2018-05-12T13:15:09.618Z,10.23
2018-05-12T13:17:37.042Z,8.75
2018-05-12T13:20:04.463Z,9.82
2018-05-12T13:22:31.884Z,11.90
2018-05-12T13:24:59.292Z,10.63
2018-05-12T13:27:26.714Z,8.85
2018-05-12T13:29:54.189Z,9.23
2018-05-12T13:32:21.626Z,13.55
2018-05-12T13:34:49.022Z,9.30
2018-05-12T13:37:16.455Z,10.88
2018-05-12T13:39:43.864Z,10.20
2018-05-12T13:42:11.286Z,10.13
2018-05-12T13:44:38.756Z,10.43
2018-05-12T13:47:06.178Z,10.70
2018-05-12T13:49:33.593Z,9.23
2018-05-12T13:52:01.014Z,9.55
2018-05-12T13:54:28.425Z,11.80
2018-05-12T13:56:55.877Z,19.33
2018-05-12T13:59:23.277Z,11.68
2018-05-12T14:01:50.696Z,12.82
2018-05-12T14:04:19.636Z,11.68
2018-05-12T14:06:47.100Z,11.30
2018-05-12T14:09:14.526Z,9.38
2018-05-12T14:11:42.705Z,9.25
2018-05-12T14:14:10.133Z,10.05
2018-05-12T14:16:37.548Z,8.57
2018-05-12T14:19:05.169Z,9.88
2018-05-12T14:21:32.555Z,8.85
2018-05-12T14:23:59.965Z,8.27
2018-05-12T14:26:27.391Z,9.43
2018-05-12T14:28:54.800Z,8.57
2018-05-12T14:31:22.325Z,10.15
2018-05-12T14:33:49.746Z,12.85
2018-05-12T14:36:17.166Z,9.63
2018-05-12T14:38:44.587Z,10.70
2018-05-12T14:41:11.997Z,10.25
2018-05-12T14:43:39.426Z,9.23
2018-05-12T14:46:06.837Z,8.05
2018-05-12T14:48:34.274Z,10.50
2018-05-12T14:51:01.774Z,9.57
2018-05-12T14:53:29.197Z,8.32
2018-05-12T14:55:56.597Z,8.90
2018-05-12T14:58:24.782Z,9.98
2018-05-12T15:00:52.989Z,10.65
2018-05-12T15:03:20.411Z,9.05
2018-05-12T15:05:48.041Z,11.95
2018-05-12T15:08:16.208Z,8.43
2018-05-12T15:10:44.414Z,10.20
2018-05-12T15:13:12.602Z,11.38
2018-05-12T15:15:40.785Z,7.90
2018-05-12T15:18:08.258Z,10.50
2018-05-12T15:20:36.417Z,11.63
2018-05-12T15:23:04.624Z,15.40
2018-05-12T15:25:32.041Z,10.85
2018-05-12T15:27:59.676Z,12.70
2018-05-12T15:30:27.831Z,12.30
2018-05-12T15:32:56.048Z,9.32
2018-05-12T15:35:24.205Z,11.90
2018-05-12T15:37:52.388Z,9.95
2018-05-12T15:40:19.793Z,9.18
2018-05-12T15:42:47.252Z,9.48
2018-05-12T15:45:14.678Z,19.12
2018-05-12T15:47:42.092Z,9.40
2018-05-12T15:50:09.510Z,12.27
2018-05-12T15:52:36.941Z,17.23
2018-05-12T15:55:04.350Z,9.27
2018-05-12T15:57:31.769Z,10.80
2018-05-12T15:59:59.184Z,9.50
2018-05-12T16:02:26.613Z,7.32
2018-05-12T16:04:54.088Z,13.65
2018-05-12T16:07:21.498Z,19.02
2018-05-12T16:09:49.023Z,7.62
2018-05-12T16:12:16.529Z,7.70
2018-05-12T16:14:43.962Z,10.63
2018-05-12T16:17:11.368Z,9.93
2018-05-12T16:19:38.812Z,7.80
2018-05-12T16:22:06.235Z,8.00
2018-05-12T16:24:33.646Z,12.25
2018-05-12T16:27:01.065Z,9.55
2018-05-12T16:29:28.584Z,14.85
2018-05-12T16:31:56.746Z,14.20
2018-05-12T16:34:24.958Z,7.20
2018-05-12T16:36:53.181Z,7.43
2018-05-12T16:39:21.310Z,7.40
2018-05-12T16:41:49.490Z,10.77
2018-05-12T16:44:17.668Z,7.50
2018-05-12T16:46:45.967Z,11.93
2018-05-12T16:49:14.153Z,7.05
2018-05-12T16:51:42.332Z,8.30
2018-05-12T16:54:10.658Z,8.98
2018-05-12T16:56:38.845Z,8.57
2018-05-12T16:59:06.264Z,7.50
2018-05-12T17:01:33.668Z,8.43
2018-05-12T17:04:01.262Z,8.60
2018-05-12T17:06:29.494Z,9.63
2018-05-12T17:08:56.857Z,9.90
2018-05-12T17:11:24.265Z,9.60
2018-05-12T17:13:52.457Z,9.18
2018-05-12T17:16:19.869Z,8.52
2018-05-12T17:18:47.300Z,9.30
2018-05-12T17:21:14.713Z,11.60
2018-05-12T17:23:42.132Z,11.88
2018-05-12T17:26:09.560Z,11.90
2018-05-12T17:28:36.964Z,8.85
2018-05-12T17:31:05.160Z,13.02
2018-05-12T17:33:32.577Z,9.82
2018-05-12T17:35:59.996Z,11.10
2018-05-12T17:38:27.413Z,12.68
2018-05-12T17:40:54.824Z,18.37
2018-05-12T17:43:23.018Z,18.27
2018-05-12T17:45:51.198Z,28.83
2018-05-12T17:48:19.405Z,37.78
2018-05-12T17:50:46.830Z,15.88
2018-05-12T17:53:14.349Z,28.87
2018-05-12T17:55:41.835Z,44.28
2018-05-12T17:58:09.193Z,35.97
2018-05-12T18:00:36.613Z,39.92
2018-05-12T18:03:04.234Z,14.23
2018-05-12T18:05:32.393Z,23.05
2018-05-12T18:08:00.582Z,19.10
2018-05-12T18:10:28.769Z,8.63
2018-05-12T18:12:56.944Z,8.80
2018-05-12T18:15:24.450Z,9.13
2018-05-12T18:17:51.908Z,10.85
2018-05-12T18:20:19.334Z,28.15
2018-05-12T18:22:46.773Z,43.05
2018-05-12T18:25:14.225Z,28.02
2018-05-12T18:27:42.403Z,16.08
2018-05-12T18:30:09.822Z,12.32
2018-05-12T18:32:37.355Z,19.98
2018-05-12T18:35:05.550Z,18.12
2018-05-12T18:37:32.969Z,11.25
2018-05-12T18:40:01.154Z,11.38
2018-05-12T18:42:28.591Z,10.93
2018-05-12T18:44:56.022Z,11.80
2018-05-12T18:47:23.453Z,10.23
2018-05-12T18:49:50.857Z,11.95
2018-05-12T18:52:19.047Z,8.57
2018-05-12T18:54:47.212Z,9.55
2018-05-12T18:57:15.393Z,13.02
2018-05-12T18:59:42.805Z,9.90
2018-05-12T19:02:10.273Z,11.98
2018-05-12T19:04:37.677Z,10.63
2018-05-12T19:07:05.094Z,13.95
2018-05-12T19:09:33.270Z,9.02
2018-05-12T19:12:01.501Z,9.48
2018-05-12T19:14:28.920Z,12.90
2018-05-12T19:16:56.327Z,10.80
2018-05-12T19:19:23.755Z,12.75
2018-05-12T19:21:51.270Z,13.10
2018-05-12T19:24:19.428Z,11.10
2018-05-12T19:26:47.615Z,16.30
2018-05-12T19:29:15.801Z,20.25
2018-05-12T19:31:43.297Z,12.80
2018-05-12T19:34:11.468Z,37.55
2018-05-12T19:36:38.965Z,45.08
2018-05-12T19:39:06.391Z,20.62
2018-05-12T19:41:34.580Z,15.02
2018-05-12T19:44:02.765Z,23.85
2018-05-12T19:46:30.976Z,15.15
2018-05-12T19:48:58.454Z,16.02
2018-05-12T19:51:25.920Z,17.27
2018-05-12T19:53:53.344Z,18.37
2018-05-12T19:56:20.869Z,13.75
2018-05-12T20:01:27.833Z,13.13
2018-05-12T20:03:55.316Z,13.52
2018-05-12T20:06:22.670Z,10.80
2018-05-12T20:08:50.089Z,19.45
2018-05-12T20:11:17.504Z,17.42
2018-05-12T20:13:44.937Z,12.63
2018-05-12T20:16:12.348Z,10.73
2018-05-12T20:18:39.766Z,11.60
2018-05-12T20:21:07.189Z,21.87
2018-05-12T20:23:34.683Z,15.25
2018-05-12T20:26:02.083Z,13.05
2018-05-12T20:28:29.501Z,16.42
2018-05-12T20:30:56.966Z,19.48
2018-05-12T20:33:24.338Z,17.58
2018-05-12T20:35:51.852Z,15.70
2018-05-12T20:38:19.330Z,14.25
2018-05-12T20:40:46.741Z,11.95
2018-05-12T20:43:14.161Z,13.20
2018-05-12T20:45:41.638Z,11.38
2018-05-12T20:48:09.038Z,14.30
2018-05-12T20:50:36.456Z,9.90
2018-05-12T20:53:04.642Z,11.90
2018-05-12T20:55:32.847Z,13.07
2018-05-12T20:58:00.261Z,11.32
2018-05-12T21:00:27.677Z,10.50
2018-05-12T21:02:55.098Z,10.68
2018-05-12T21:05:22.526Z,11.20
2018-05-12T21:07:49.933Z,14.77
2018-05-12T21:10:17.357Z,13.27
2018-05-12T21:12:44.798Z,14.93
2018-05-12T21:15:12.209Z,12.32
2018-05-12T21:17:39.623Z,11.02
2018-05-12T21:20:07.037Z,15.35
2018-05-12T21:22:34.506Z,11.88
2018-05-12T21:25:01.929Z,17.92
2018-05-12T21:27:29.340Z,13.57
2018-05-12T21:29:56.820Z,12.55
2018-05-12T21:32:24.260Z,13.25
2018-05-12T21:34:52.441Z,15.73
2018-05-12T21:37:20.633Z,14.60
2018-05-12T21:39:48.813Z,11.70
2018-05-12T21:42:16.247Z,11.25
2018-05-12T21:44:43.668Z,10.23
2018-05-12T21:47:11.878Z,11.55
2018-05-12T21:49:39.297Z,12.32
2018-05-12T21:52:06.718Z,12.20
2018-05-12T21:54:34.138Z,14.20
2018-05-12T21:57:01.561Z,10.00
2018-05-12T21:59:29.031Z,14.98
2018-05-12T22:01:56.450Z,12.15
2018-05-12T22:04:23.954Z,13.38
2018-05-12T22:06:51.378Z,11.02
2018-05-12T22:09:18.904Z,13.60
2018-05-12T22:11:47.074Z,11.40
2018-05-12T22:14:14.498Z,13.62
2018-05-12T22:16:42.017Z,12.95
2018-05-12T22:19:09.428Z,10.30
2018-05-12T22:21:36.854Z,12.10
2018-05-12T22:24:04.274Z,12.85
2018-05-12T22:26:31.700Z,12.00
2018-05-12T22:28:59.284Z,11.00
2018-05-12T22:31:27.462Z,17.33
2018-05-12T22:33:55.853Z,14.38
2018-05-12T22:36:23.281Z,12.90
2018-05-12T22:38:50.797Z,12.80
2018-05-12T22:41:18.266Z,12.10
2018-05-12T22:43:45.736Z,14.30
2018-05-12T22:46:13.152Z,14.98
2018-05-12T22:48:40.577Z,16.05
2018-05-12T22:51:07.984Z,11.70
2018-05-12T22:53:35.415Z,14.10
2018-05-12T22:56:02.857Z,13.55
2018-05-12T22:58:31.043Z,12.45
2018-05-12T23:00:59.253Z,11.60
2018-05-12T23:03:26.677Z,12.13
2018-05-12T23:05:54.861Z,12.75
2018-05-12T23:08:22.288Z,11.57
2018-05-12T23:10:49.709Z,12.23
2018-05-12T23:13:17.129Z,12.15
2018-05-12T23:15:44.557Z,12.52
2018-05-12T23:18:12.882Z,12.27
2018-05-12T23:20:41.054Z,13.82
2018-05-12T23:23:08.474Z,11.05
2018-05-12T23:25:35.901Z,11.68
2018-05-12T23:28:03.329Z,14.60
2018-05-12T23:30:30.748Z,14.52
2018-05-12T23:32:58.912Z,13.52
2018-05-12T23:35:27.099Z,16.23
2018-05-12T23:37:55.311Z,12.75
2018-05-12T23:40:23.485Z,11.75
2018-05-12T23:42:50.969Z,15.77
2018-05-12T23:45:18.478Z,10.98
2018-05-12T23:47:45.813Z,11.57
2018-05-12T23:50:13.221Z,10.77
2018-05-12T23:52:40.644Z,14.25
2018-05-12T23:55:08.056Z,9.52
2018-05-12T23:57:35.477Z,10.30
